Terminal Aerodrome Forecast
Issued by NWS

Home | Current Version | Previous Version | Graphics & Text | Print | Product List | Glossary On
Versions: 1 2 3 4 5 6 7 8 9 10 11 12 13
000
FTUS43 KIWX 261129
TAFSBN
TAF
KSBN 261129Z 2612/2712 20008KT P6SM BKN200
     FM270100 16005KT P6SM SCT040 BKN110
     FM270900 19004KT P6SM SHRA VCTS OVC040CB=

USA.gov is the U.S. government's official web portal to all federal, state and local government web resources and services.